Time;durP1;ratioP1;P1;durP2;ratioP2;P2;SDS_P1;SDS_P2;PMS_P1;PMS_P2;Temp;Humidity;BMP_temperature;BMP_pressure;BME280_temperature;BME280_humidity;BME280_pressure;Samples;Min_cycle;Max_cycle;Signal;HPM_P1;HPM_P2
2022/06/21 04:32:46;;;;;;;;;12.00;10.25;;;;;19.41;59.79;100728.91;5037222;27;46342;-71
2022/06/21 04:35:30;;;;;;;;;10.50;10.50;;;;;19.37;59.16;100718.44;5036280;28;45458;-72
2022/06/21 04:38:07;;;;;;;;;11.00;9.50;;;;;19.32;59.45;100728.81;5037012;28;45571;-73
2022/06/21 04:40:38;;;;;;;;;15.00;13.25;;;;;19.30;59.61;100733.53;5036930;28;45242;-72
2022/06/21 04:43:09;;;;;;;;;14.25;12.00;;;;;19.28;59.29;100734.53;5036915;28;45563;-71
2022/06/21 04:45:45;;;;;;;;;13.00;11.25;;;;;19.19;59.95;100727.13;5036751;28;45361;-72
2022/06/21 04:48:28;;;;;;;;;13.00;10.00;;;;;19.22;59.87;100740.44;5036053;28;46134;-73
2022/06/21 04:51:25;;;;;;;;;8.25;8.25;;;;;19.23;60.27;100736.75;5036159;28;45269;-72
2022/06/21 04:54:01;;;;;;;;;9.50;9.50;;;;;19.20;60.20;100734.28;5028275;28;45200;-71
2022/06/21 04:56:58;;;;;;;;;10.00;10.00;;;;;19.13;59.60;100722.19;5036772;28;45703;-71
2022/06/21 04:59:34;;;;;;;;;12.75;12.75;;;;;19.19;59.56;100732.56;5035189;28;46602;-72
2022/06/21 05:02:01;;;;;;;;;10.50;10.25;;;;;19.16;59.51;100740.94;5025780;28;45349;-73
2022/06/21 05:04:31;;;;;;;;;11.50;8.00;;;;;19.15;59.42;100741.06;5036519;28;45353;-72
2022/06/21 05:07:00;;;;;;;;;9.50;9.50;;;;;19.11;59.63;100756.78;5036241;28;45399;-72
2022/06/21 05:09:29;;;;;;;;;8.50;7.75;;;;;19.09;60.08;100760.59;5036401;28;45356;-75
2022/06/21 05:12:02;;;;;;;;;10.25;9.00;;;;;19.09;59.97;100766.03;5027028;28;45486;-73
2022/06/21 05:14:34;;;;;;;;;10.00;10.00;;;;;19.02;59.32;100757.53;5040661;28;45344;-73
2022/06/21 05:17:00;;;;;;;;;14.50;13.25;;;;;19.06;59.46;100769.00;5036519;28;45432;-75
2022/06/21 05:19:36;;;;;;;;;10.25;10.25;;;;;19.15;59.46;100787.28;5038161;28;46438;-78
2022/06/21 05:22:16;;;;;;;;;9.75;9.75;;;;;19.14;58.98;100772.81;5040063;28;45347;-76
2022/06/21 05:24:44;;;;;;;;;10.50;9.50;;;;;19.18;59.76;100759.84;5020984;28;45380;-74
2022/06/21 05:27:14;;;;;;;;;14.00;13.00;;;;;19.33;59.47;100779.47;5038341;28;45611;-77
2022/06/21 05:30:01;;;;;;;;;10.50;8.50;;;;;19.38;59.33;100782.72;5037506;28;46378;-74
2022/06/21 05:32:36;;;;;;;;;11.25;11.00;;;;;19.45;58.84;100792.09;5040276;28;45425;-76
2022/06/21 05:35:11;;;;;;;;;8.25;8.25;;;;;19.52;58.64;100788.75;5036286;28;45360;-74
2022/06/21 05:37:49;;;;;;;;;10.25;9.25;;;;;19.55;58.30;100772.19;5034554;28;47507;-73
2022/06/21 05:40:24;;;;;;;;;12.00;12.00;;;;;19.61;57.92;100773.53;5035132;28;45372;-76
2022/06/21 05:42:49;;;;;;;;;10.75;10.75;;;;;19.64;58.01;100776.03;5035897;28;45359;-73
2022/06/21 05:45:18;;;;;;;;;10.00;10.00;;;;;19.79;58.89;100790.19;5035022;28;45375;-74
2022/06/21 05:47:52;;;;;;;;;10.50;9.75;;;;;19.89;58.52;100792.03;5017537;28;45600;-74
2022/06/21 05:50:24;;;;;;;;;15.25;13.00;;;;;19.93;58.01;100790.75;5031977;28;46239;-70
2022/06/21 05:52:56;;;;;;;;;11.50;11.50;;;;;19.96;57.50;100770.59;5028537;28;45399;-70
2022/06/21 05:55:28;;;;;;;;;12.00;10.25;;;;;19.99;57.68;100779.34;5023027;28;45382;-72
2022/06/21 05:57:57;;;;;;;;;11.00;11.00;;;;;20.00;57.84;100777.47;5035199;28;45471;-72
2022/06/21 06:00:32;;;;;;;;;9.75;9.00;;;;;20.05;57.30;100775.25;5035470;28;45514;-70
2022/06/21 06:03:09;;;;;;;;;10.50;10.50;;;;;20.07;56.98;100772.41;5034983;28;45501;-73
2022/06/21 06:05:35;;;;;;;;;13.00;11.75;;;;;20.04;56.39;100776.25;5035377;28;45579;-70
2022/06/21 06:08:08;;;;;;;;;10.25;9.50;;;;;19.98;56.48;100765.88;5035096;28;45628;-71
2022/06/21 06:10:35;;;;;;;;;10.25;9.00;;;;;19.98;56.25;100769.47;5035185;28;45399;-71
2022/06/21 06:13:07;;;;;;;;;15.00;13.75;;;;;19.99;56.58;100779.34;5016029;28;45324;-73
2022/06/21 06:15:44;;;;;;;;;11.75;10.75;;;;;19.98;56.80;100768.59;5015421;28;45384;-71
2022/06/21 06:18:22;;;;;;;;;12.25;11.00;;;;;20.03;56.46;100766.34;5023386;28;45491;-71
2022/06/21 06:21:24;;;;;;;;;12.50;11.75;;;;;20.03;57.18;100769.94;5016799;28;46152;-72
2022/06/21 06:24:09;;;;;;;;;13.00;13.00;;;;;19.99;56.04;100760.28;4999617;28;45387;-71
2022/06/21 06:26:40;;;;;;;;;13.50;13.50;;;;;19.94;56.17;100757.09;5035480;28;45398;-72
2022/06/21 06:29:25;;;;;;;;;12.75;12.75;;;;;19.93;56.43;100754.50;5035153;28;45509;-71
2022/06/21 06:32:04;;;;;;;;;11.75;11.00;;;;;19.85;56.65;100752.44;5034786;28;45439;-70
2022/06/21 06:34:41;;;;;;;;;12.00;12.00;;;;;19.86;56.86;100764.19;5035190;28;45411;-72
2022/06/21 06:37:19;;;;;;;;;8.50;8.50;;;;;19.93;56.75;100779.88;5032103;28;45313;-72
2022/06/21 06:39:45;;;;;;;;;13.50;11.75;;;;;19.80;56.92;100745.66;5034897;28;45351;-71
2022/06/21 06:42:17;;;;;;;;;15.00;11.00;;;;;19.91;57.04;100756.50;5034578;28;45735;-71
2022/06/21 06:45:03;;;;;;;;;16.50;13.25;;;;;20.10;56.06;100783.00;5035484;28;45451;-72
2022/06/21 06:47:37;;;;;;;;;11.00;9.50;;;;;20.17;56.56;100786.94;5035423;28;45238;-71
2022/06/21 06:50:12;;;;;;;;;15.50;14.00;;;;;20.25;56.02;100785.28;5034533;28;45503;-71
2022/06/21 06:52:50;;;;;;;;;12.00;12.00;;;;;20.34;56.33;100800.88;5034629;28;45447;-72
2022/06/21 06:55:18;;;;;;;;;11.75;9.75;;;;;20.39;56.37;100786.88;5034904;28;45232;-71
2022/06/21 06:57:51;;;;;;;;;12.25;12.25;;;;;20.42;56.68;100774.84;5034766;28;45479;-70
2022/06/21 07:00:21;;;;;;;;;13.75;12.50;;;;;20.54;56.16;100776.50;5034696;28;45338;-71
2022/06/21 07:02:54;;;;;;;;;14.00;13.00;;;;;20.55;55.37;100787.28;5034268;28;47243;-72
2022/06/21 07:05:37;;;;;;;;;14.50;12.00;;;;;20.55;55.66;100800.03;5034367;28;45500;-71
2022/06/21 07:08:20;;;;;;;;;8.00;8.00;;;;;20.59;55.73;100804.19;5034442;28;45222;-71
2022/06/21 07:10:49;;;;;;;;;12.75;10.75;;;;;20.53;55.17;100802.00;5033733;28;45428;-72
2022/06/21 07:13:15;;;;;;;;;13.25;13.25;;;;;20.57;55.41;100817.97;5014397;28;46307;-72
2022/06/21 07:15:44;;;;;;;;;14.25;14.25;;;;;20.56;55.74;100810.78;5014249;28;45407;-71
2022/06/21 07:18:18;;;;;;;;;14.75;14.75;;;;;20.65;55.44;100820.03;5014588;28;45250;-72
2022/06/21 07:20:45;;;;;;;;;10.75;10.75;;;;;20.67;55.68;100813.44;5013819;28;45329;-71
2022/06/21 07:23:19;;;;;;;;;12.25;12.00;;;;;20.76;55.48;100826.25;5014310;28;46045;-71
2022/06/21 07:25:51;;;;;;;;;13.00;13.00;;;;;20.81;55.54;100822.28;5014367;28;45594;-71
2022/06/21 07:28:25;;;;;;;;;13.75;13.75;;;;;20.86;55.52;100826.31;5014611;28;45404;-71
2022/06/21 07:30:55;;;;;;;;;13.50;13.00;;;;;20.85;55.31;100815.53;5013632;28;45341;-72
2022/06/21 07:33:40;;;;;;;;;16.00;13.00;;;;;20.91;55.52;100821.34;5014090;28;46226;-73
2022/06/21 07:36:15;;;;;;;;;14.25;11.75;;;;;20.98;55.76;100835.28;5025648;28;45349;-73
2022/06/21 07:39:09;;;;;;;;;13.25;11.50;;;;;21.06;55.45;100838.22;5034027;28;45286;-71
2022/06/21 07:41:45;;;;;;;;;11.75;11.75;;;;;21.15;55.42;100832.81;5024136;28;45304;-71
2022/06/21 07:44:21;;;;;;;;;14.00;14.00;;;;;21.27;54.82;100830.00;5033934;28;45347;-70
2022/06/21 07:46:52;;;;;;;;;17.00;12.00;;;;;21.29;54.75;100817.09;5033786;28;45518;-72
2022/06/21 07:49:23;;;;;;;;;14.50;13.00;;;;;21.44;54.53;100832.94;5016093;28;45471;-71
2022/06/21 07:52:01;;;;;;;;;14.50;12.75;;;;;21.49;54.91;100830.69;5033181;28;45449;-71
2022/06/21 07:54:43;;;;;;;;;13.50;13.50;;;;;21.59;54.21;100838.91;5033755;28;46100;-72
2022/06/21 07:57:19;;;;;;;;;14.00;13.50;;;;;21.61;54.22;100833.28;5033878;28;45354;-72
2022/06/21 07:59:54;;;;;;;;;14.00;12.75;;;;;21.62;54.41;100835.88;5032786;28;45436;-72
2022/06/21 08:08:18;;;;;;;;;15.00;15.00;;;;;21.70;54.48;100827.88;5036018;28;45503;-71
2022/06/21 08:11:00;;;;;;;;;14.50;13.25;;;;;21.67;54.73;100817.25;5037135;28;45373;-72
2022/06/21 08:13:27;;;;;;;;;13.25;12.75;;;;;21.70;54.60;100830.59;5025862;28;45365;-72
2022/06/21 08:16:04;;;;;;;;;13.50;11.00;;;;;21.73;54.52;100824.88;5037109;28;45590;-71
2022/06/21 08:18:45;;;;;;;;;11.00;11.00;;;;;21.73;54.77;100822.13;5037240;28;45431;-72
2022/06/21 08:21:20;;;;;;;;;13.50;13.50;;;;;21.87;54.52;100835.38;5036904;28;45192;-72
2022/06/21 08:23:55;;;;;;;;;13.75;13.75;;;;;21.99;54.71;100844.34;5037286;28;45401;-72
2022/06/21 08:26:27;;;;;;;;;13.50;13.50;;;;;22.03;54.56;100842.22;5019163;28;46635;-71
2022/06/21 08:29:01;;;;;;;;;11.25;11.25;;;;;22.14;54.35;100848.38;5036937;28;45452;-72
2022/06/21 08:31:31;;;;;;;;;13.00;13.00;;;;;22.22;54.43;100853.13;5036598;28;45484;-73
2022/06/21 08:34:05;;;;;;;;;17.50;17.50;;;;;22.18;54.31;100858.03;5036618;28;45489;-73
2022/06/21 08:36:32;;;;;;;;;16.00;14.50;;;;;22.13;54.90;100868.50;5036434;28;45494;-72
2022/06/21 08:39:15;;;;;;;;;15.75;15.75;;;;;22.03;55.22;100864.06;5036590;28;45273;-72
2022/06/21 08:41:55;;;;;;;;;19.25;17.50;;;;;21.93;55.15;100847.63;5037121;28;45623;-72
2022/06/21 08:44:41;;;;;;;;;21.50;20.75;;;;;21.93;55.86;100863.13;5036682;28;45384;-72
2022/06/21 08:47:34;;;;;;;;;17.50;17.50;;;;;21.93;55.70;100858.53;5036639;28;46579;-72
2022/06/21 08:50:39;;;;;;;;;15.50;15.00;;;;;22.04;55.85;100849.38;5036598;28;45428;-71
2022/06/21 08:53:55;;;;;;;;;17.25;14.50;;;;;22.20;55.66;100858.72;5036338;28;45461;-73
2022/06/21 08:56:49;;;;;;;;;14.50;14.50;;;;;22.35;55.38;100850.13;5000053;28;45503;-72
2022/06/21 08:59:27;;;;;;;;;17.25;13.75;;;;;22.48;55.62;100837.03;5036364;28;45427;-72
2022/06/21 09:02:17;;;;;;;;;16.00;15.00;;;;;22.61;55.07;100833.03;5036751;28;45426;-71
2022/06/21 09:05:27;;;;;;;;;18.00;17.25;;;;;22.68;55.02;100830.56;5018104;28;45429;-71
2022/06/21 09:07:55;;;;;;;;;17.25;17.25;;;;;22.80;54.77;100840.34;5003525;28;45506;-72
2022/06/21 09:10:34;;;;;;;;;17.50;17.50;;;;;22.86;54.43;100839.78;5036145;28;45309;-73
2022/06/21 09:13:18;;;;;;;;;16.00;14.50;;;;;22.95;54.24;100833.41;5005085;28;45339;-72
2022/06/21 09:15:43;;;;;;;;;14.00;14.00;;;;;22.99;53.77;100831.25;5036194;28;45416;-72
2022/06/21 09:18:24;;;;;;;;;13.00;13.00;;;;;22.97;54.21;100828.66;5035401;28;45333;-71
2022/06/21 09:21:09;;;;;;;;;15.00;15.00;;;;;22.97;54.24;100838.72;5035681;28;45552;-72
2022/06/21 09:23:55;;;;;;;;;17.00;15.00;;;;;22.92;54.50;100833.72;5036182;28;45489;-71
2022/06/21 09:26:48;;;;;;;;;14.25;14.25;;;;;23.06;54.80;100845.16;5036382;28;45454;-72
2022/06/21 09:29:30;;;;;;;;;14.00;13.00;;;;;23.05;54.40;100822.47;5035973;28;45369;-72
2022/06/21 09:32:20;;;;;;;;;17.50;16.00;;;;;23.20;54.64;100828.31;5035619;28;45368;-72
2022/06/21 09:35:10;;;;;;;;;14.00;14.00;;;;;23.25;54.07;100835.03;5035851;28;45236;-72
2022/06/21 09:37:47;;;;;;;;;13.00;13.00;;;;;23.22;54.41;100835.34;5036286;28;45420;-72
2022/06/21 09:40:44;;;;;;;;;15.25;15.25;;;;;23.24;54.23;100832.44;5035860;28;45331;-72
2022/06/21 09:43:32;;;;;;;;;17.50;16.50;;;;;23.21;54.25;100830.91;5035595;28;45674;-73
2022/06/21 09:46:03;;;;;;;;;18.75;18.75;;;;;23.17;54.32;100832.19;5015717;28;45215;-72
2022/06/21 09:48:48;;;;;;;;;17.50;14.50;;;;;23.12;54.85;100820.00;5015934;28;45527;-72
2022/06/21 09:51:16;;;;;;;;;16.25;16.25;;;;;23.07;55.15;100816.81;5015299;28;45403;-71
2022/06/21 09:54:38;;;;;;;;;17.75;16.25;;;;;22.99;55.00;100818.44;5022311;28;46158;-72
2022/06/21 09:57:31;;;;;;;;;19.75;18.00;;;;;22.94;55.37;100815.28;5005091;28;45508;-73
2022/06/21 10:00:11;;;;;;;;;17.25;15.50;;;;;22.92;55.33;100813.72;5035570;28;45421;-71
2022/06/21 10:03:03;;;;;;;;;17.25;17.25;;;;;22.83;55.64;100806.38;5035629;28;45328;-73
2022/06/21 10:05:50;;;;;;;;;17.25;17.25;;;;;22.76;55.67;100802.53;5035278;28;45424;-72
2022/06/21 10:08:34;;;;;;;;;13.75;12.50;;;;;22.74;56.29;100799.94;5035256;28;45344;-72
2022/06/21 10:11:13;;;;;;;;;14.00;14.00;;;;;22.78;55.99;100790.44;5033163;28;45560;-73
2022/06/21 10:14:04;;;;;;;;;17.75;14.00;;;;;22.84;56.26;100788.97;5015455;28;45227;-71
2022/06/21 10:16:59;;;;;;;;;17.50;15.75;;;;;22.88;56.22;100788.53;5004963;28;46298;-72
2022/06/21 10:19:36;;;;;;;;;15.50;14.00;;;;;22.85;55.76;100782.50;5035011;28;45406;-71
2022/06/21 10:22:18;;;;;;;;;16.25;16.25;;;;;22.89;56.04;100789.38;5031342;28;45347;-70
2022/06/21 10:24:44;;;;;;;;;15.00;15.00;;;;;22.93;55.56;100775.28;5038947;28;45383;-72
2022/06/21 10:27:21;;;;;;;;;19.75;17.75;;;;;23.00;55.54;100775.53;5014774;28;45339;-71
2022/06/21 10:29:55;;;;;;;;;16.50;14.75;;;;;23.06;55.04;100768.59;5014505;28;45540;-72
2022/06/21 10:32:48;;;;;;;;;15.00;12.25;;;;;23.12;55.25;100765.28;5027848;28;45523;-71
2022/06/21 10:35:30;;;;;;;;;14.00;14.00;;;;;23.18;55.07;100765.53;5028909;28;45308;-72
2022/06/21 10:38:17;;;;;;;;;19.00;12.50;;;;;23.23;55.19;100759.59;5034457;28;46465;-72
2022/06/21 10:41:18;;;;;;;;;21.00;17.50;;;;;23.26;54.68;100760.19;5021516;28;45408;-73
2022/06/21 10:43:52;;;;;;;;;18.25;15.50;;;;;23.32;54.38;100766.91;5005012;28;45383;-72
2022/06/21 10:46:26;;;;;;;;;18.25;17.25;;;;;23.32;54.35;100750.50;5034370;28;45573;-71
2022/06/21 10:49:18;;;;;;;;;16.25;15.75;;;;;23.37;54.23;100754.50;5034367;28;45300;-75
2022/06/21 10:51:46;;;;;;;;;19.50;19.50;;;;;23.40;53.89;100751.44;5028346;28;45400;-70
2022/06/21 10:54:42;;;;;;;;;17.00;15.75;;;;;23.44;54.26;100757.50;5034653;28;45550;-72
2022/06/21 10:57:26;;;;;;;;;18.25;17.00;;;;;23.49;54.20;100743.38;5034004;28;45293;-72
2022/06/21 11:03:01;;;;;;;;;17.00;16.00;;;;;23.52;53.82;100729.38;5034075;28;45333;-74
2022/06/21 11:05:39;;;;;;;;;16.75;16.50;;;;;23.62;54.21;100739.25;5034250;28;45380;-73
2022/06/21 11:08:13;;;;;;;;;18.25;17.00;;;;;23.56;53.55;100723.44;5034559;28;45242;-71
2022/06/21 11:10:47;;;;;;;;;18.75;17.50;;;;;23.69;53.50;100734.03;5034165;28;45458;-73
2022/06/21 11:13:17;;;;;;;;;16.75;16.50;;;;;23.79;53.95;100732.09;5021254;28;45364;-72
2022/06/21 11:15:53;;;;;;;;;16.50;16.50;;;;;23.89;53.51;100734.75;5020345;28;45354;-74
2022/06/21 11:18:37;;;;;;;;;19.00;18.50;;;;;23.99;52.99;100736.38;5014214;28;45511;-73
2022/06/21 11:21:27;;;;;;;;;14.25;14.25;;;;;24.07;53.21;100738.34;5014016;28;46374;-73
2022/06/21 11:24:07;;;;;;;;;15.00;15.00;;;;;24.16;53.19;100726.41;5014148;28;45310;-74
2022/06/21 11:26:53;;;;;;;;;19.00;17.25;;;;;24.26;52.35;100737.31;5014244;28;45172;-74
2022/06/21 11:29:37;;;;;;;;;19.50;16.50;;;;;24.37;52.39;100737.09;5014075;28;45499;-72
2022/06/21 11:32:27;;;;;;;;;19.00;19.00;;;;;24.39;51.97;100713.13;5014126;28;45490;-73
2022/06/21 11:35:20;;;;;;;;;21.25;21.25;;;;;24.51;51.31;100709.94;5014107;28;45384;-72
2022/06/21 11:38:07;;;;;;;;;17.75;15.75;;;;;24.58;51.42;100717.56;5014224;28;45380;-73
2022/06/21 11:40:57;;;;;;;;;17.75;17.75;;;;;24.71;51.10;100721.56;5018667;28;45397;-73
2022/06/21 11:43:40;;;;;;;;;19.25;17.25;;;;;24.82;51.40;100718.56;5032981;28;46059;-75
2022/06/21 11:46:38;;;;;;;;;25.25;20.00;;;;;25.00;50.11;100723.13;5015519;28;45324;-73
2022/06/21 11:49:09;;;;;;;;;21.00;16.00;;;;;25.10;49.74;100721.97;5031760;28;45471;-72
2022/06/21 11:51:58;;;;;;;;;20.25;17.50;;;;;25.18;49.76;100710.16;5032360;28;45368;-73
2022/06/21 11:54:33;;;;;;;;;22.75;20.75;;;;;25.15;49.32;100713.25;5027865;28;45439;-71
2022/06/21 11:57:41;;;;;;;;;21.00;16.75;;;;;25.05;49.54;100718.88;5013117;28;45438;-70
2022/06/21 12:00:16;;;;;;;;;18.00;16.00;;;;;25.01;49.93;100722.13;4985698;28;45415;-69
2022/06/21 12:02:53;;;;;;;;;19.75;15.00;;;;;24.89;49.86;100705.91;5014686;28;45533;-69
2022/06/21 12:05:30;;;;;;;;;18.25;18.25;;;;;24.98;50.14;100717.81;5033060;28;45399;-70
2022/06/21 12:08:26;;;;;;;;;13.25;13.25;;;;;25.00;49.81;100703.94;5033199;28;45345;-70
2022/06/21 12:11:01;;;;;;;;;16.25;13.25;;;;;25.09;49.81;100709.31;5032530;28;45383;-69
2022/06/21 12:13:51;;;;;;;;;13.50;13.50;;;;;25.18;49.74;100707.41;5013672;28;45409;-69
2022/06/21 12:16:25;;;;;;;;;17.00;16.00;;;;;25.21;49.87;100707.97;5013240;28;45395;-70
2022/06/21 12:19:00;;;;;;;;;13.25;13.25;;;;;25.20;49.92;100702.63;5013340;28;45318;-70
2022/06/21 12:21:30;;;;;;;;;14.00;13.25;;;;;25.23;50.10;100711.41;5020873;28;45574;-70
2022/06/21 12:24:00;;;;;;;;;22.00;16.25;;;;;25.27;49.85;100710.03;5033177;28;45406;-69
2022/06/21 12:26:29;;;;;;;;;17.00;15.00;;;;;25.35;48.86;100694.66;5032823;28;45482;-69
2022/06/21 12:28:57;;;;;;;;;14.25;14.25;;;;;25.47;49.53;100688.66;5033292;28;45395;-69
2022/06/21 12:31:22;;;;;;;;;12.00;12.00;;;;;25.55;48.95;100694.16;5033493;28;45371;-70
2022/06/21 12:33:52;;;;;;;;;13.50;13.50;;;;;25.55;48.88;100682.31;5033132;28;45328;-69
2022/06/21 12:36:38;;;;;;;;;16.00;14.50;;;;;25.52;49.04;100691.75;5033007;28;46229;-69
2022/06/21 12:39:13;;;;;;;;;22.25;17.00;;;;;25.45;49.16;100678.88;5033024;28;45516;-69
2022/06/21 12:41:55;;;;;;;;;15.75;14.50;;;;;25.51;48.77;100686.44;5032815;28;45478;-69
2022/06/21 12:44:55;;;;;;;;;14.00;11.75;;;;;25.57;48.95;100685.78;5015526;28;45340;-71
2022/06/21 12:47:33;;;;;;;;;18.25;14.00;;;;;25.58;49.13;100685.59;5032786;28;45794;-68
2022/06/21 12:50:29;;;;;;;;;13.50;13.50;;;;;25.57;48.73;100686.63;5032578;28;45544;-70
2022/06/21 12:53:06;;;;;;;;;13.25;13.00;;;;;25.58;49.25;100682.88;5034043;28;45738;-69
2022/06/21 12:55:55;;;;;;;;;12.75;12.75;;;;;25.56;48.88;100690.41;5036704;28;45515;-70
2022/06/21 12:58:55;;;;;;;;;12.00;12.00;;;;;25.50;48.77;100669.13;5031343;28;47273;-70
2022/06/21 13:01:49;;;;;;;;;16.25;15.00;;;;;25.79;48.73;100679.66;5016027;28;45411;-70
2022/06/21 13:04:52;;;;;;;;;10.75;10.75;;;;;25.89;48.89;100679.50;5009146;28;45462;-69
2022/06/21 13:07:32;;;;;;;;;15.00;15.00;;;;;25.93;48.39;100670.75;5036078;28;45468;-69
2022/06/21 13:10:06;;;;;;;;;12.50;12.50;;;;;25.94;48.51;100677.97;5036208;28;46610;-70
2022/06/21 13:12:54;;;;;;;;;12.50;12.25;;;;;25.97;48.33;100668.50;5021714;28;45314;-69
2022/06/21 13:15:33;;;;;;;;;10.00;10.00;;;;;26.00;47.90;100660.78;5015094;28;45543;-69
2022/06/21 13:18:19;;;;;;;;;13.25;13.25;;;;;26.08;47.92;100657.19;5035778;28;45401;-69
2022/06/21 13:21:12;;;;;;;;;15.75;15.50;;;;;26.19;47.57;100655.97;5035786;28;45489;-69
2022/06/21 13:24:03;;;;;;;;;17.75;16.00;;;;;26.23;47.62;100652.69;5036004;28;45215;-69
2022/06/21 13:26:46;;;;;;;;;16.50;16.25;;;;;26.28;47.98;100650.34;5036368;28;45413;-70
2022/06/21 13:29:33;;;;;;;;;11.50;11.50;;;;;26.26;47.77;100657.03;5035978;28;45518;-69
2022/06/21 13:32:03;;;;;;;;;12.00;12.00;;;;;26.21;47.98;100653.88;5035225;28;45536;-69
2022/06/21 13:34:40;;;;;;;;;14.00;14.00;;;;;26.22;47.92;100647.34;5035328;28;45523;-71
2022/06/21 13:37:19;;;;;;;;;16.75;13.00;;;;;26.23;47.80;100649.09;5032089;28;45483;-68
2022/06/21 13:40:02;;;;;;;;;12.75;12.75;;;;;26.31;48.21;100638.09;5035657;28;45354;-70
2022/06/21 13:42:38;;;;;;;;;13.25;12.25;;;;;26.53;47.28;100645.63;5035891;28;45407;-69
2022/06/21 13:45:12;;;;;;;;;13.00;13.00;;;;;26.68;46.92;100632.88;5035605;28;45391;-70
2022/06/21 13:48:14;;;;;;;;;14.25;12.75;;;;;26.70;46.97;100641.81;5035650;28;45340;-70
2022/06/21 13:50:51;;;;;;;;;12.75;12.75;;;;;26.82;46.67;100635.91;5034928;28;45444;-70
2022/06/21 13:53:42;;;;;;;;;17.50;14.50;;;;;26.74;46.17;100634.91;5035688;28;45677;-68
2022/06/21 13:56:18;;;;;;;;;12.75;12.25;;;;;26.74;47.28;100636.78;5035709;28;45446;-69
2022/06/21 13:58:51;;;;;;;;;16.25;15.00;;;;;26.71;46.70;100628.91;5035281;28;45429;-69
2022/06/21 14:01:42;;;;;;;;;10.50;9.25;;;;;26.61;47.16;100637.38;5034960;28;45339;-71
2022/06/21 14:04:17;;;;;;;;;11.75;11.75;;;;;26.75;46.42;100628.38;5035320;28;45364;-70
2022/06/21 14:07:18;;;;;;;;;14.00;14.00;;;;;27.00;46.01;100626.41;5016870;28;45663;-68
2022/06/21 14:10:03;;;;;;;;;12.75;12.75;;;;;27.25;45.40;100624.38;5010621;28;45434;-69
2022/06/21 14:12:43;;;;;;;;;14.50;13.75;;;;;27.39;45.38;100622.75;5014867;28;45369;-70
2022/06/21 14:15:29;;;;;;;;;12.25;10.75;;;;;27.36;45.30;100628.63;5015324;28;45467;-70
2022/06/21 14:18:10;;;;;;;;;15.50;14.00;;;;;27.26;45.73;100626.09;5015487;28;45490;-70
2022/06/21 14:20:43;;;;;;;;;13.50;13.50;;;;;27.48;45.83;100619.75;5029135;28;45407;-69
2022/06/21 14:23:26;;;;;;;;;12.00;12.00;;;;;27.74;44.45;100626.81;5025577;28;45544;-67
2022/06/21 14:26:07;;;;;;;;;11.75;10.00;;;;;27.95;44.24;100627.00;5010809;28;45527;-70
2022/06/21 14:28:35;;;;;;;;;15.50;14.00;;;;;28.08;44.09;100627.19;5024438;28;45452;-69
2022/06/21 14:31:09;;;;;;;;;16.50;14.25;;;;;28.18;42.61;100608.53;5024491;28;45210;-70
2022/06/21 14:33:48;;;;;;;;;11.75;11.75;;;;;28.33;43.10;100613.22;5030107;28;45491;-70
2022/06/21 14:36:29;;;;;;;;;14.00;14.00;;;;;28.44;42.29;100608.09;4999409;28;46300;-69
2022/06/21 14:39:32;;;;;;;;;13.00;12.00;;;;;28.43;43.06;100611.03;5024688;28;45578;-70
2022/06/21 14:42:05;;;;;;;;;13.25;11.50;;;;;28.31;43.42;100607.91;4993263;28;45295;-69
2022/06/21 14:44:37;;;;;;;;;12.75;10.50;;;;;28.26;42.55;100602.06;5034738;28;45478;-70
2022/06/21 14:47:16;;;;;;;;;10.00;8.75;;;;;28.31;43.58;100599.63;5034277;28;45357;-70
2022/06/21 14:49:51;;;;;;;;;12.50;12.50;;;;;28.43;43.18;100598.09;5034294;28;45495;-67
2022/06/21 14:52:25;;;;;;;;;10.75;10.75;;;;;28.55;43.24;100596.59;5016233;28;45567;-69
2022/06/21 14:55:16;;;;;;;;;12.75;10.75;;;;;28.71;42.57;100578.97;5033600;28;45459;-69
2022/06/21 14:58:19;;;;;;;;;12.25;10.50;;;;;28.85;42.32;100575.38;5034063;28;45506;-72
2022/06/21 15:00:53;;;;;;;;;13.50;12.75;;;;;28.98;41.83;100578.31;5034444;28;45372;-71
2022/06/21 15:03:48;;;;;;;;;12.00;12.00;;;;;29.06;41.41;100577.34;5034753;28;45471;-71
2022/06/21 15:06:28;;;;;;;;;12.25;11.25;;;;;29.04;41.17;100568.38;5032827;28;45723;-69
2022/06/21 15:09:01;;;;;;;;;8.75;8.75;;;;;29.14;41.51;100568.94;5034034;28;46116;-71
2022/06/21 15:11:53;;;;;;;;;11.00;10.25;;;;;29.25;41.15;100565.66;5028072;28;45556;-71
2022/06/21 15:14:31;;;;;;;;;11.75;10.75;;;;;29.43;40.43;100556.13;5016434;28;45404;-71
2022/06/21 15:16:56;;;;;;;;;11.25;9.25;;;;;29.45;40.12;100559.50;5032829;28;46167;-71
2022/06/21 15:19:55;;;;;;;;;8.50;7.50;;;;;29.34;40.73;100544.31;5015533;28;46101;-70
2022/06/21 15:22:46;;;;;;;;;11.75;11.75;;;;;29.33;40.97;100548.13;5034127;28;45542;-70
2022/06/21 15:25:27;;;;;;;;;9.50;7.75;;;;;29.29;40.54;100544.88;5034183;28;45450;-69
2022/06/21 15:28:45;;;;;;;;;10.75;10.00;;;;;29.40;40.98;100554.59;5032987;28;45400;-72
2022/06/21 15:31:38;;;;;;;;;9.50;9.50;;;;;29.47;40.16;100536.16;4999399;28;45593;-71
2022/06/21 15:34:06;;;;;;;;;13.50;10.75;;;;;29.57;40.65;100541.38;5033289;28;45809;-71
2022/06/21 15:37:02;;;;;;;;;10.75;9.75;;;;;29.51;40.00;100540.25;5012219;28;45450;-72
2022/06/21 15:39:42;;;;;;;;;12.25;9.75;;;;;29.35;40.60;100532.19;5014213;28;45507;-72
2022/06/21 15:42:16;;;;;;;;;10.25;8.75;;;;;29.24;40.71;100532.72;5033892;28;45335;-72
2022/06/21 15:44:48;;;;;;;;;10.25;10.00;;;;;29.13;41.10;100539.63;5033057;28;45402;-71
2022/06/21 15:50:28;;;;;;;;;13.25;10.50;;;;;29.17;41.12;100543.72;5033229;28;45293;-71
2022/06/21 15:53:28;;;;;;;;;15.00;12.25;;;;;29.31;41.53;100537.25;5033066;28;46413;-71
2022/06/21 15:56:11;;;;;;;;;8.75;8.75;;;;;29.40;41.20;100528.88;4999554;28;45460;-72
2022/06/21 15:58:55;;;;;;;;;9.50;9.50;;;;;29.49;40.72;100533.22;5020149;28;45428;-70
2022/06/21 16:01:26;;;;;;;;;12.25;9.00;;;;;29.47;40.56;100533.41;5015897;28;45505;-70
2022/06/21 16:04:33;;;;;;;;;11.50;8.00;;;;;29.34;40.92;100542.41;5012568;28;45372;-72
2022/06/21 16:07:03;;;;;;;;;9.25;7.25;;;;;29.14;41.05;100523.91;5005374;28;45424;-70
2022/06/21 16:09:36;;;;;;;;;10.75;9.50;;;;;29.12;40.49;100539.81;5033357;28;45431;-71
2022/06/21 16:12:11;;;;;;;;;11.75;10.50;;;;;29.07;40.61;100529.38;5023879;28;45618;-68
2022/06/21 16:14:42;;;;;;;;;12.00;12.00;;;;;29.02;41.33;100533.72;5024765;28;46539;-68
2022/06/21 16:17:21;;;;;;;;;9.75;9.75;;;;;28.87;41.65;100526.38;5024089;28;45606;-70
2022/06/21 16:19:55;;;;;;;;;9.00;9.00;;;;;28.88;41.67;100524.47;5024828;28;45510;-69
2022/06/21 16:22:37;;;;;;;;;13.50;10.25;;;;;28.86;40.80;100526.56;5032678;28;45453;-70
2022/06/21 16:25:11;;;;;;;;;8.50;8.50;;;;;28.87;41.28;100523.59;5027663;28;45224;-68
2022/06/21 16:27:41;;;;;;;;;11.25;11.25;;;;;28.77;41.42;100525.81;5031511;28;45381;-70
2022/06/21 16:30:16;;;;;;;;;10.50;9.25;;;;;28.78;41.01;100534.94;5017266;28;45599;-69
2022/06/21 16:33:27;;;;;;;;;12.00;11.00;;;;;28.98;40.99;100527.78;5035869;28;45395;-68
2022/06/21 16:36:00;;;;;;;;;12.50;12.50;;;;;29.10;40.75;100531.72;4981939;28;46270;-69
2022/06/21 16:38:31;;;;;;;;;10.00;8.75;;;;;29.26;40.03;100525.94;4989089;28;45442;-68
2022/06/21 16:44:03;;;;;;;;;9.75;8.50;;;;;29.50;39.79;100521.97;5036943;28;45317;-68
2022/06/21 16:46:42;;;;;;;;;10.00;7.75;;;;;29.71;39.60;100532.13;5036720;28;46116;-68
2022/06/21 16:49:31;;;;;;;;;11.00;10.75;;;;;29.71;39.52;100535.75;5036583;28;45241;-68
2022/06/21 16:51:56;;;;;;;;;8.25;7.25;;;;;29.54;39.97;100541.75;5036746;28;45373;-68
2022/06/21 16:54:23;;;;;;;;;9.75;8.25;;;;;29.41;39.90;100539.72;5036161;28;45471;-69
2022/06/21 16:56:48;;;;;;;;;12.00;11.75;;;;;29.30;39.66;100543.84;5036115;28;45519;-70